sensor_id;sensor_type;location;lat;lon;timestamp;P1;durP1;ratioP1;P2;durP2;ratioP2
1024;SDS011;501;48.214;11.350;2023-06-24T00:01:09;4.50;;;4.10;;
1024;SDS011;501;48.214;11.350;2023-06-24T00:03:38;5.60;;;4.63;;
1024;SDS011;501;48.214;11.350;2023-06-24T00:06:04;5.30;;;4.80;;
1024;SDS011;501;48.214;11.350;2023-06-24T00:08:29;5.77;;;4.60;;
1024;SDS011;501;48.214;11.350;2023-06-24T00:10:59;4.90;;;4.40;;
1024;SDS011;501;48.214;11.350;2023-06-24T00:13:28;5.00;;;4.50;;
1024;SDS011;501;48.214;11.350;2023-06-24T00:15:54;5.97;;;5.37;;
1024;SDS011;501;48.214;11.350;2023-06-24T00:18:20;4.97;;;4.47;;
1024;SDS011;501;48.214;11.350;2023-06-24T00:20:46;5.40;;;4.90;;
1024;SDS011;501;48.214;11.350;2023-06-24T00:23:14;5.40;;;4.90;;
1024;SDS011;501;48.214;11.350;2023-06-24T00:25:45;5.10;;;4.60;;
1024;SDS011;501;48.214;11.350;2023-06-24T00:28:11;6.63;;;5.00;;
1024;SDS011;501;48.214;11.350;2023-06-24T00:30:36;5.63;;;5.10;;
1024;SDS011;501;48.214;11.350;2023-06-24T00:33:02;6.80;;;6.00;;
1024;SDS011;501;48.214;11.350;2023-06-24T00:35:28;6.07;;;5.47;;
1024;SDS011;501;48.214;11.350;2023-06-24T00:37:53;7.27;;;5.83;;
1024;SDS011;501;48.214;11.350;2023-06-24T00:40:23;6.20;;;5.60;;
1024;SDS011;501;48.214;11.350;2023-06-24T00:42:49;5.40;;;5.00;;
1024;SDS011;501;48.214;11.350;2023-06-24T00:45:15;5.97;;;5.37;;
1024;SDS011;501;48.214;11.350;2023-06-24T00:47:43;5.80;;;5.17;;
1024;SDS011;501;48.214;11.350;2023-06-24T00:50:08;6.60;;;5.77;;
1024;SDS011;501;48.214;11.350;2023-06-24T00:52:37;7.30;;;5.50;;
1024;SDS011;501;48.214;11.350;2023-06-24T00:55:07;5.70;;;5.20;;
1024;SDS011;501;48.214;11.350;2023-06-24T00:57:43;5.93;;;5.00;;
1024;SDS011;501;48.214;11.350;2023-06-24T01:00:10;5.47;;;4.97;;
1024;SDS011;501;48.214;11.350;2023-06-24T01:02:42;5.73;;;5.23;;
1024;SDS011;501;48.214;11.350;2023-06-24T01:05:09;5.90;;;5.40;;
1024;SDS011;501;48.214;11.350;2023-06-24T01:07:37;5.67;;;5.17;;
1024;SDS011;501;48.214;11.350;2023-06-24T01:10:03;6.23;;;4.90;;
1024;SDS011;501;48.214;11.350;2023-06-24T01:12:30;5.70;;;5.20;;
1024;SDS011;501;48.214;11.350;2023-06-24T01:14:58;6.37;;;5.73;;
1024;SDS011;501;48.214;11.350;2023-06-24T01:17:28;5.37;;;4.40;;
1024;SDS011;501;48.214;11.350;2023-06-24T01:33:57;5.13;;;4.63;;
1024;SDS011;501;48.214;11.350;2023-06-24T01:36:27;6.37;;;4.70;;
1024;SDS011;501;48.214;11.350;2023-06-24T01:39:02;5.40;;;4.90;;
1024;SDS011;501;48.214;11.350;2023-06-24T01:41:36;5.47;;;4.97;;
1024;SDS011;501;48.214;11.350;2023-06-24T01:44:13;4.50;;;4.10;;
1024;SDS011;501;48.214;11.350;2023-06-24T01:46:40;5.30;;;4.80;;
1024;SDS011;501;48.214;11.350;2023-06-24T01:49:07;4.90;;;4.40;;
1024;SDS011;501;48.214;11.350;2023-06-24T01:51:36;5.57;;;5.07;;
1024;SDS011;501;48.214;11.350;2023-06-24T01:54:05;4.93;;;4.50;;
1024;SDS011;501;48.214;11.350;2023-06-24T01:56:34;5.40;;;4.90;;
1024;SDS011;501;48.214;11.350;2023-06-24T01:59:03;5.77;;;5.27;;
1024;SDS011;501;48.214;11.350;2023-06-24T02:01:30;6.97;;;5.80;;
1024;SDS011;501;48.214;11.350;2023-06-24T02:03:58;5.10;;;4.60;;
1024;SDS011;501;48.214;11.350;2023-06-24T02:06:26;6.70;;;5.10;;
1024;SDS011;501;48.214;11.350;2023-06-24T02:08:54;5.20;;;4.70;;
1024;SDS011;501;48.214;11.350;2023-06-24T02:11:23;5.50;;;5.00;;
1024;SDS011;501;48.214;11.350;2023-06-24T02:13:50;7.20;;;4.80;;
1024;SDS011;501;48.214;11.350;2023-06-24T02:16:18;5.27;;;4.33;;
1024;SDS011;501;48.214;11.350;2023-06-24T02:18:45;6.90;;;5.30;;
1024;SDS011;501;48.214;11.350;2023-06-24T02:21:12;6.13;;;5.03;;
1024;SDS011;501;48.214;11.350;2023-06-24T02:23:39;5.17;;;4.67;;
1024;SDS011;501;48.214;11.350;2023-06-24T02:26:06;5.17;;;4.57;;
1024;SDS011;501;48.214;11.350;2023-06-24T02:28:33;4.60;;;4.20;;
1024;SDS011;501;48.214;11.350;2023-06-24T02:30:59;5.77;;;4.73;;
1024;SDS011;501;48.214;11.350;2023-06-24T02:33:25;5.67;;;5.07;;
1024;SDS011;501;48.214;11.350;2023-06-24T02:35:51;5.30;;;4.60;;
1024;SDS011;501;48.214;11.350;2023-06-24T02:38:17;5.37;;;4.87;;
1024;SDS011;501;48.214;11.350;2023-06-24T02:40:46;5.00;;;4.50;;
1024;SDS011;501;48.214;11.350;2023-06-24T02:43:12;5.20;;;4.63;;
1024;SDS011;501;48.214;11.350;2023-06-24T02:45:38;5.40;;;4.90;;
1024;SDS011;501;48.214;11.350;2023-06-24T02:48:05;7.20;;;5.30;;
1024;SDS011;501;48.214;11.350;2023-06-24T02:50:32;5.40;;;4.90;;
1024;SDS011;501;48.214;11.350;2023-06-24T02:52:59;4.73;;;4.33;;
1024;SDS011;501;48.214;11.350;2023-06-24T02:55:25;6.40;;;5.20;;
1024;SDS011;501;48.214;11.350;2023-06-24T02:57:51;4.40;;;4.00;;
1024;SDS011;501;48.214;11.350;2023-06-24T03:00:18;5.93;;;4.53;;
1024;SDS011;501;48.214;11.350;2023-06-24T03:02:45;6.30;;;5.10;;
1024;SDS011;501;48.214;11.350;2023-06-24T03:05:11;5.23;;;4.60;;
1024;SDS011;501;48.214;11.350;2023-06-24T03:07:37;4.53;;;3.80;;
1024;SDS011;501;48.214;11.350;2023-06-24T03:10:03;4.30;;;3.90;;
1024;SDS011;501;48.214;11.350;2023-06-24T03:12:33;5.27;;;4.77;;
1024;SDS011;501;48.214;11.350;2023-06-24T03:14:59;4.20;;;3.87;;
1024;SDS011;501;48.214;11.350;2023-06-24T03:17:25;4.63;;;4.20;;
1024;SDS011;501;48.214;11.350;2023-06-24T03:19:51;4.53;;;4.13;;
1024;SDS011;501;48.214;11.350;2023-06-24T03:22:17;4.77;;;4.33;;
1024;SDS011;501;48.214;11.350;2023-06-24T03:24:43;4.90;;;3.80;;
1024;SDS011;501;48.214;11.350;2023-06-24T03:27:09;5.33;;;4.47;;
1024;SDS011;501;48.214;11.350;2023-06-24T03:29:34;5.57;;;4.00;;
1024;SDS011;501;48.214;11.350;2023-06-24T03:32:00;4.83;;;4.40;;
1024;SDS011;501;48.214;11.350;2023-06-24T03:34:26;5.57;;;4.63;;
1024;SDS011;501;48.214;11.350;2023-06-24T03:36:52;4.87;;;4.23;;
1024;SDS011;501;48.214;11.350;2023-06-24T03:39:21;5.23;;;4.13;;
1024;SDS011;501;48.214;11.350;2023-06-24T03:41:47;5.50;;;4.90;;
1024;SDS011;501;48.214;11.350;2023-06-24T03:44:13;4.80;;;3.93;;
1024;SDS011;501;48.214;11.350;2023-06-24T03:46:38;4.70;;;4.30;;
1024;SDS011;501;48.214;11.350;2023-06-24T03:49:04;5.07;;;4.33;;
1024;SDS011;501;48.214;11.350;2023-06-24T03:51:30;7.30;;;4.37;;
1024;SDS011;501;48.214;11.350;2023-06-24T03:53:56;4.17;;;3.80;;
1024;SDS011;501;48.214;11.350;2023-06-24T03:56:21;5.00;;;4.50;;
1024;SDS011;501;48.214;11.350;2023-06-24T03:58:47;4.70;;;4.30;;
1024;SDS011;501;48.214;11.350;2023-06-24T04:01:13;6.60;;;5.10;;
1024;SDS011;501;48.214;11.350;2023-06-24T04:03:38;5.00;;;4.50;;
1024;SDS011;501;48.214;11.350;2023-06-24T04:06:04;5.17;;;4.67;;
1024;SDS011;501;48.214;11.350;2023-06-24T04:08:30;5.43;;;4.77;;
1024;SDS011;501;48.214;11.350;2023-06-24T04:10:56;6.00;;;5.50;;
1024;SDS011;501;48.214;11.350;2023-06-24T04:13:24;3.70;;;3.40;;
1024;SDS011;501;48.214;11.350;2023-06-24T04:15:50;5.90;;;4.50;;
1024;SDS011;501;48.214;11.350;2023-06-24T04:18:16;4.70;;;4.20;;
1024;SDS011;501;48.214;11.350;2023-06-24T04:20:42;5.07;;;4.23;;
1024;SDS011;501;48.214;11.350;2023-06-24T04:23:07;5.50;;;5.00;;
1024;SDS011;501;48.214;11.350;2023-06-24T04:25:35;4.40;;;4.00;;
1024;SDS011;501;48.214;11.350;2023-06-24T04:28:02;4.70;;;4.30;;
1024;SDS011;501;48.214;11.350;2023-06-24T04:30:29;4.67;;;4.27;;
1024;SDS011;501;48.214;11.350;2023-06-24T04:32:55;7.70;;;4.57;;
1024;SDS011;501;48.214;11.350;2023-06-24T04:35:21;6.77;;;6.07;;
1024;SDS011;501;48.214;11.350;2023-06-24T04:37:47;4.43;;;4.03;;
1024;SDS011;501;48.214;11.350;2023-06-24T04:40:15;5.70;;;5.03;;
1024;SDS011;501;48.214;11.350;2023-06-24T04:42:44;5.27;;;4.43;;
1024;SDS011;501;48.214;11.350;2023-06-24T04:45:10;5.70;;;4.60;;
1024;SDS011;501;48.214;11.350;2023-06-24T04:47:36;4.90;;;4.40;;
1024;SDS011;501;48.214;11.350;2023-06-24T04:50:02;5.00;;;4.50;;
1024;SDS011;501;48.214;11.350;2023-06-24T04:52:28;4.37;;;3.97;;
1024;SDS011;501;48.214;11.350;2023-06-24T04:54:54;4.67;;;4.27;;
1024;SDS011;501;48.214;11.350;2023-06-24T04:57:27;5.47;;;4.87;;
1024;SDS011;501;48.214;11.350;2023-06-24T04:59:53;4.17;;;3.87;;
1024;SDS011;501;48.214;11.350;2023-06-24T05:02:19;5.17;;;4.77;;
1024;SDS011;501;48.214;11.350;2023-06-24T05:04:45;4.20;;;3.80;;
1024;SDS011;501;48.214;11.350;2023-06-24T05:07:10;5.50;;;4.37;;
1024;SDS011;501;48.214;11.350;2023-06-24T05:09:36;5.00;;;4.50;;
1024;SDS011;501;48.214;11.350;2023-06-24T05:12:05;5.60;;;4.70;;
1024;SDS011;501;48.214;11.350;2023-06-24T05:14:34;5.00;;;4.50;;
1024;SDS011;501;48.214;11.350;2023-06-24T05:17:00;5.70;;;5.13;;
1024;SDS011;501;48.214;11.350;2023-06-24T05:19:26;5.00;;;4.50;;
1024;SDS011;501;48.214;11.350;2023-06-24T05:21:52;5.40;;;4.80;;
1024;SDS011;501;48.214;11.350;2023-06-24T05:24:17;7.03;;;5.10;;
1024;SDS011;501;48.214;11.350;2023-06-24T05:26:44;5.13;;;4.00;;
1024;SDS011;501;48.214;11.350;2023-06-24T05:29:11;6.00;;;4.43;;
1024;SDS011;501;48.214;11.350;2023-06-24T05:31:37;4.90;;;4.40;;
1024;SDS011;501;48.214;11.350;2023-06-24T05:34:02;5.43;;;4.93;;
1024;SDS011;501;48.214;11.350;2023-06-24T05:36:28;6.20;;;4.60;;
1024;SDS011;501;48.214;11.350;2023-06-24T05:38:54;4.70;;;4.10;;
1024;SDS011;501;48.214;11.350;2023-06-24T05:41:19;6.17;;;4.93;;
1024;SDS011;501;48.214;11.350;2023-06-24T05:43:45;5.10;;;4.60;;
1024;SDS011;501;48.214;11.350;2023-06-24T05:46:11;5.80;;;5.20;;
1024;SDS011;501;48.214;11.350;2023-06-24T05:48:36;5.77;;;4.97;;
1024;SDS011;501;48.214;11.350;2023-06-24T05:51:02;5.40;;;4.90;;
1024;SDS011;501;48.214;11.350;2023-06-24T05:53:28;6.10;;;4.90;;
1024;SDS011;501;48.214;11.350;2023-06-24T05:55:53;4.27;;;3.87;;
1024;SDS011;501;48.214;11.350;2023-06-24T05:58:19;4.27;;;3.87;;
1024;SDS011;501;48.214;11.350;2023-06-24T06:00:45;5.83;;;4.10;;
1024;SDS011;501;48.214;11.350;2023-06-24T06:03:10;5.37;;;4.87;;
1024;SDS011;501;48.214;11.350;2023-06-24T06:05:36;5.47;;;4.73;;
1024;SDS011;501;48.214;11.350;2023-06-24T06:08:01;4.77;;;4.37;;
1024;SDS011;501;48.214;11.350;2023-06-24T06:10:27;4.90;;;4.40;;
1024;SDS011;501;48.214;11.350;2023-06-24T06:12:53;4.27;;;3.90;;
1024;SDS011;501;48.214;11.350;2023-06-24T06:15:20;5.20;;;4.57;;
1024;SDS011;501;48.214;11.350;2023-06-24T06:17:46;5.10;;;4.03;;
1024;SDS011;501;48.214;11.350;2023-06-24T06:20:11;4.30;;;3.90;;
1024;SDS011;501;48.214;11.350;2023-06-24T06:22:37;5.60;;;4.43;;
1024;SDS011;501;48.214;11.350;2023-06-24T06:25:06;4.20;;;3.80;;
1024;SDS011;501;48.214;11.350;2023-06-24T06:27:33;4.53;;;4.13;;
1024;SDS011;501;48.214;11.350;2023-06-24T06:29:58;4.93;;;4.43;;
1024;SDS011;501;48.214;11.350;2023-06-24T06:32:24;5.57;;;5.03;;
1024;SDS011;501;48.214;11.350;2023-06-24T06:34:50;4.93;;;4.43;;
1024;SDS011;501;48.214;11.350;2023-06-24T06:37:16;4.97;;;4.47;;
1024;SDS011;501;48.214;11.350;2023-06-24T06:39:41;4.00;;;3.60;;
1024;SDS011;501;48.214;11.350;2023-06-24T06:42:07;4.63;;;4.17;;
1024;SDS011;501;48.214;11.350;2023-06-24T06:44:33;4.50;;;4.10;;
1024;SDS011;501;48.214;11.350;2023-06-24T06:46:58;4.53;;;4.13;;
1024;SDS011;501;48.214;11.350;2023-06-24T06:49:24;5.20;;;4.33;;
1024;SDS011;501;48.214;11.350;2023-06-24T06:51:51;5.43;;;4.10;;
1024;SDS011;501;48.214;11.350;2023-06-24T06:54:19;5.03;;;3.80;;
1024;SDS011;501;48.214;11.350;2023-06-24T06:56:44;5.33;;;4.10;;
1024;SDS011;501;48.214;11.350;2023-06-24T06:59:10;4.17;;;3.80;;
1024;SDS011;501;48.214;11.350;2023-06-24T07:01:36;4.80;;;3.80;;
1024;SDS011;501;48.214;11.350;2023-06-24T07:04:01;4.73;;;4.27;;
1024;SDS011;501;48.214;11.350;2023-06-24T07:06:27;4.67;;;3.67;;
1024;SDS011;501;48.214;11.350;2023-06-24T07:08:52;4.07;;;3.67;;
1024;SDS011;501;48.214;11.350;2023-06-24T07:11:18;4.93;;;4.47;;
1024;SDS011;501;48.214;11.350;2023-06-24T07:13:44;4.63;;;4.23;;
1024;SDS011;501;48.214;11.350;2023-06-24T07:16:11;4.30;;;3.90;;
1024;SDS011;501;48.214;11.350;2023-06-24T07:18:36;3.20;;;2.87;;
1024;SDS011;501;48.214;11.350;2023-06-24T07:21:02;3.47;;;3.17;;
1024;SDS011;501;48.214;11.350;2023-06-24T07:23:27;3.60;;;3.30;;
1024;SDS011;501;48.214;11.350;2023-06-24T07:25:53;3.80;;;3.50;;
1024;SDS011;501;48.214;11.350;2023-06-24T07:28:19;3.17;;;2.97;;
1024;SDS011;501;48.214;11.350;2023-06-24T07:30:45;6.73;;;2.87;;
1024;SDS011;501;48.214;11.350;2023-06-24T07:33:10;3.40;;;3.10;;
1024;SDS011;501;48.214;11.350;2023-06-24T07:35:36;4.07;;;3.50;;
1024;SDS011;501;48.214;11.350;2023-06-24T07:38:02;4.13;;;3.73;;
1024;SDS011;501;48.214;11.350;2023-06-24T07:40:27;3.77;;;3.03;;
1024;SDS011;501;48.214;11.350;2023-06-24T07:42:53;3.40;;;3.10;;
1024;SDS011;501;48.214;11.350;2023-06-24T07:45:19;4.73;;;4.00;;
1024;SDS011;501;48.214;11.350;2023-06-24T07:47:45;4.60;;;3.53;;
1024;SDS011;501;48.214;11.350;2023-06-24T07:50:10;4.30;;;3.90;;
1024;SDS011;501;48.214;11.350;2023-06-24T07:52:39;4.57;;;3.83;;
1024;SDS011;501;48.214;11.350;2023-06-24T07:55:04;3.63;;;3.33;;
1024;SDS011;501;48.214;11.350;2023-06-24T07:57:31;3.80;;;3.47;;
1024;SDS011;501;48.214;11.350;2023-06-24T07:59:56;3.50;;;3.20;;
1024;SDS011;501;48.214;11.350;2023-06-24T08:02:22;3.90;;;3.57;;
1024;SDS011;501;48.214;11.350;2023-06-24T08:04:51;4.30;;;3.90;;
1024;SDS011;501;48.214;11.350;2023-06-24T08:07:17;3.70;;;3.40;;
1024;SDS011;501;48.214;11.350;2023-06-24T08:09:42;3.63;;;3.33;;
1024;SDS011;501;48.214;11.350;2023-06-24T08:12:08;4.80;;;4.40;;
1024;SDS011;501;48.214;11.350;2023-06-24T08:14:34;4.47;;;4.00;;
1024;SDS011;501;48.214;11.350;2023-06-24T08:17:00;4.70;;;4.10;;
1024;SDS011;501;48.214;11.350;2023-06-24T08:19:26;4.43;;;3.73;;
1024;SDS011;501;48.214;11.350;2023-06-24T08:21:51;3.63;;;3.33;;
1024;SDS011;501;48.214;11.350;2023-06-24T08:24:17;4.87;;;3.73;;
1024;SDS011;501;48.214;11.350;2023-06-24T08:26:43;4.77;;;4.37;;
1024;SDS011;501;48.214;11.350;2023-06-24T08:29:08;4.00;;;3.60;;
1024;SDS011;501;48.214;11.350;2023-06-24T08:31:34;4.00;;;3.63;;
1024;SDS011;501;48.214;11.350;2023-06-24T08:34:00;3.80;;;3.50;;
1024;SDS011;501;48.214;11.350;2023-06-24T08:36:31;7.80;;;4.17;;
1024;SDS011;501;48.214;11.350;2023-06-24T08:38:56;4.10;;;3.70;;
1024;SDS011;501;48.214;11.350;2023-06-24T08:41:22;6.80;;;3.80;;
1024;SDS011;501;48.214;11.350;2023-06-24T08:43:50;5.07;;;4.57;;
1024;SDS011;501;48.214;11.350;2023-06-24T08:46:16;3.50;;;3.20;;
1024;SDS011;501;48.214;11.350;2023-06-24T08:48:43;5.73;;;4.40;;
1024;SDS011;501;48.214;11.350;2023-06-24T08:51:10;5.00;;;4.50;;
1024;SDS011;501;48.214;11.350;2023-06-24T08:53:38;4.57;;;4.07;;
1024;SDS011;501;48.214;11.350;2023-06-24T08:56:07;4.60;;;3.73;;
1024;SDS011;501;48.214;11.350;2023-06-24T08:58:33;4.80;;;4.40;;
1024;SDS011;501;48.214;11.350;2023-06-24T09:00:59;4.47;;;4.07;;
1024;SDS011;501;48.214;11.350;2023-06-24T09:03:25;4.27;;;3.77;;
1024;SDS011;501;48.214;11.350;2023-06-24T09:05:51;7.20;;;4.40;;
1024;SDS011;501;48.214;11.350;2023-06-24T09:08:16;5.63;;;4.20;;
1024;SDS011;501;48.214;11.350;2023-06-24T09:10:43;5.67;;;4.90;;
1024;SDS011;501;48.214;11.350;2023-06-24T09:13:09;5.23;;;4.50;;
1024;SDS011;501;48.214;11.350;2023-06-24T09:15:35;4.60;;;4.20;;
1024;SDS011;501;48.214;11.350;2023-06-24T09:18:03;4.43;;;4.03;;
1024;SDS011;501;48.214;11.350;2023-06-24T09:20:30;4.53;;;4.03;;
1024;SDS011;501;48.214;11.350;2023-06-24T09:22:59;4.57;;;4.17;;
1024;SDS011;501;48.214;11.350;2023-06-24T09:25:26;5.20;;;4.60;;
1024;SDS011;501;48.214;11.350;2023-06-24T09:27:52;5.30;;;4.80;;
1024;SDS011;501;48.214;11.350;2023-06-24T09:30:21;4.73;;;4.33;;
1024;SDS011;501;48.214;11.350;2023-06-24T09:32:48;5.33;;;4.77;;
1024;SDS011;501;48.214;11.350;2023-06-24T09:35:16;6.40;;;4.93;;
1024;SDS011;501;48.214;11.350;2023-06-24T09:38:06;5.10;;;4.70;;
1024;SDS011;501;48.214;11.350;2023-06-24T09:40:31;6.10;;;5.50;;
1024;SDS011;501;48.214;11.350;2023-06-24T09:43:00;6.40;;;4.70;;
1024;SDS011;501;48.214;11.350;2023-06-24T09:45:26;5.07;;;4.57;;
1024;SDS011;501;48.214;11.350;2023-06-24T09:47:53;7.90;;;4.60;;
1024;SDS011;501;48.214;11.350;2023-06-24T09:50:20;6.30;;;5.43;;
1024;SDS011;501;48.214;11.350;2023-06-24T09:52:46;4.90;;;4.50;;
1024;SDS011;501;48.214;11.350;2023-06-24T09:55:14;6.40;;;5.47;;
1024;SDS011;501;48.214;11.350;2023-06-24T09:57:44;5.17;;;4.67;;
1024;SDS011;501;48.214;11.350;2023-06-24T10:00:11;7.00;;;5.37;;
1024;SDS011;501;48.214;11.350;2023-06-24T10:02:43;6.03;;;5.47;;
1024;SDS011;501;48.214;11.350;2023-06-24T10:05:10;5.83;;;5.20;;
1024;SDS011;501;48.214;11.350;2023-06-24T10:07:37;5.83;;;5.23;;
1024;SDS011;501;48.214;11.350;2023-06-24T10:10:05;6.47;;;4.70;;
1024;SDS011;501;48.214;11.350;2023-06-24T10:12:31;4.77;;;4.37;;
1024;SDS011;501;48.214;11.350;2023-06-24T10:14:58;5.10;;;4.17;;
1024;SDS011;501;48.214;11.350;2023-06-24T10:17:25;5.00;;;4.40;;
1024;SDS011;501;48.214;11.350;2023-06-24T10:19:51;5.27;;;4.70;;
1024;SDS011;501;48.214;11.350;2023-06-24T10:22:24;5.87;;;5.37;;
1024;SDS011;501;48.214;11.350;2023-06-24T10:24:51;5.73;;;5.23;;
1024;SDS011;501;48.214;11.350;2023-06-24T10:27:18;5.67;;;4.57;;
1024;SDS011;501;48.214;11.350;2023-06-24T10:29:49;5.57;;;5.03;;
1024;SDS011;501;48.214;11.350;2023-06-24T10:32:21;5.60;;;5.00;;
1024;SDS011;501;48.214;11.350;2023-06-24T10:34:48;8.57;;;4.67;;
1024;SDS011;501;48.214;11.350;2023-06-24T10:37:22;7.90;;;5.20;;
1024;SDS011;501;48.214;11.350;2023-06-24T10:44:54;5.27;;;4.77;;
1024;SDS011;501;48.214;11.350;2023-06-24T10:47:25;4.87;;;4.43;;
1024;SDS011;501;48.214;11.350;2023-06-24T10:49:52;4.47;;;4.07;;
1024;SDS011;501;48.214;11.350;2023-06-24T10:52:18;6.47;;;4.47;;
1024;SDS011;501;48.214;11.350;2023-06-24T10:54:49;4.33;;;3.93;;
1024;SDS011;501;48.214;11.350;2023-06-24T10:57:20;4.53;;;4.13;;
1024;SDS011;501;48.214;11.350;2023-06-24T10:59:48;5.10;;;4.60;;
1024;SDS011;501;48.214;11.350;2023-06-24T11:02:17;4.60;;;4.20;;
1024;SDS011;501;48.214;11.350;2023-06-24T11:07:17;4.70;;;4.30;;
1024;SDS011;501;48.214;11.350;2023-06-24T11:12:17;4.70;;;4.30;;
1024;SDS011;501;48.214;11.350;2023-06-24T11:14:43;4.43;;;3.90;;
1024;SDS011;501;48.214;11.350;2023-06-24T11:17:09;5.10;;;4.50;;
1024;SDS011;501;48.214;11.350;2023-06-24T11:19:35;5.60;;;4.60;;
1024;SDS011;501;48.214;11.350;2023-06-24T11:22:05;5.20;;;4.80;;
1024;SDS011;501;48.214;11.350;2023-06-24T11:24:31;5.23;;;4.83;;
1024;SDS011;501;48.214;11.350;2023-06-24T11:26:57;4.80;;;4.30;;
1024;SDS011;501;48.214;11.350;2023-06-24T11:29:23;5.03;;;4.47;;
1024;SDS011;501;48.214;11.350;2023-06-24T11:31:49;5.03;;;4.53;;
1024;SDS011;501;48.214;11.350;2023-06-24T11:34:15;4.80;;;4.40;;
1024;SDS011;501;48.214;11.350;2023-06-24T11:36:41;4.47;;;4.07;;
1024;SDS011;501;48.214;11.350;2023-06-24T11:39:07;4.60;;;4.20;;
1024;SDS011;501;48.214;11.350;2023-06-24T11:41:33;4.73;;;4.33;;
1024;SDS011;501;48.214;11.350;2023-06-24T11:43:59;4.23;;;3.83;;
1024;SDS011;501;48.214;11.350;2023-06-24T11:46:28;3.90;;;3.60;;
1024;SDS011;501;48.214;11.350;2023-06-24T11:49:06;5.33;;;4.70;;
1024;SDS011;501;48.214;11.350;2023-06-24T11:51:32;4.27;;;3.97;;
1024;SDS011;501;48.214;11.350;2023-06-24T11:53:59;3.90;;;3.60;;
1024;SDS011;501;48.214;11.350;2023-06-24T11:56:36;4.60;;;4.20;;
1024;SDS011;501;48.214;11.350;2023-06-24T11:59:06;4.00;;;3.50;;
1024;SDS011;501;48.214;11.350;2023-06-24T12:01:32;4.73;;;4.20;;
1024;SDS011;501;48.214;11.350;2023-06-24T12:04:01;5.40;;;3.60;;
1024;SDS011;501;48.214;11.350;2023-06-24T12:06:40;3.87;;;3.57;;
1024;SDS011;501;48.214;11.350;2023-06-24T12:09:10;4.40;;;4.03;;
1024;SDS011;501;48.214;11.350;2023-06-24T12:11:36;8.33;;;4.63;;
1024;SDS011;501;48.214;11.350;2023-06-24T12:14:02;4.70;;;3.80;;
1024;SDS011;501;48.214;11.350;2023-06-24T12:16:28;4.63;;;4.23;;
1024;SDS011;501;48.214;11.350;2023-06-24T12:18:54;4.57;;;4.17;;
1024;SDS011;501;48.214;11.350;2023-06-24T12:21:20;3.90;;;3.60;;
1024;SDS011;501;48.214;11.350;2023-06-24T12:23:46;3.97;;;3.67;;
1024;SDS011;501;48.214;11.350;2023-06-24T12:26:12;4.77;;;4.37;;
1024;SDS011;501;48.214;11.350;2023-06-24T12:28:38;4.40;;;4.00;;
1024;SDS011;501;48.214;11.350;2023-06-24T12:31:03;4.40;;;3.90;;
1024;SDS011;501;48.214;11.350;2023-06-24T12:33:30;4.43;;;4.03;;
1024;SDS011;501;48.214;11.350;2023-06-24T12:35:55;9.00;;;3.67;;
1024;SDS011;501;48.214;11.350;2023-06-24T12:38:21;4.20;;;3.90;;
1024;SDS011;501;48.214;11.350;2023-06-24T12:40:47;3.73;;;3.43;;
1024;SDS011;501;48.214;11.350;2023-06-24T12:43:13;4.30;;;4.00;;
1024;SDS011;501;48.214;11.350;2023-06-24T12:45:39;4.40;;;4.00;;
1024;SDS011;501;48.214;11.350;2023-06-24T12:48:08;4.50;;;4.10;;
1024;SDS011;501;48.214;11.350;2023-06-24T12:50:34;4.23;;;3.93;;
1024;SDS011;501;48.214;11.350;2023-06-24T12:53:00;3.53;;;3.23;;
1024;SDS011;501;48.214;11.350;2023-06-24T12:55:26;4.20;;;3.80;;
1024;SDS011;501;48.214;11.350;2023-06-24T12:57:52;3.53;;;3.30;;
1024;SDS011;501;48.214;11.350;2023-06-24T13:00:21;3.80;;;3.50;;
1024;SDS011;501;48.214;11.350;2023-06-24T13:02:48;3.70;;;3.30;;
1024;SDS011;501;48.214;11.350;2023-06-24T13:05:14;3.93;;;3.63;;
1024;SDS011;501;48.214;11.350;2023-06-24T13:07:40;3.37;;;3.07;;
1024;SDS011;501;48.214;11.350;2023-06-24T13:10:06;3.37;;;3.07;;
1024;SDS011;501;48.214;11.350;2023-06-24T13:12:32;3.53;;;3.23;;
1024;SDS011;501;48.214;11.350;2023-06-24T13:14:59;3.67;;;3.37;;
1024;SDS011;501;48.214;11.350;2023-06-24T13:17:24;3.83;;;3.13;;
1024;SDS011;501;48.214;11.350;2023-06-24T13:19:50;3.10;;;2.90;;
1024;SDS011;501;48.214;11.350;2023-06-24T13:22:16;4.00;;;3.60;;
1024;SDS011;501;48.214;11.350;2023-06-24T13:24:42;4.30;;;3.33;;
1024;SDS011;501;48.214;11.350;2023-06-24T13:27:08;3.10;;;2.80;;
1024;SDS011;501;48.214;11.350;2023-06-24T13:29:34;3.67;;;3.40;;
1024;SDS011;501;48.214;11.350;2023-06-24T13:31:59;3.87;;;3.57;;
1024;SDS011;501;48.214;11.350;2023-06-24T13:34:25;4.43;;;3.57;;
1024;SDS011;501;48.214;11.350;2023-06-24T13:36:51;4.10;;;3.70;;
1024;SDS011;501;48.214;11.350;2023-06-24T13:39:16;3.40;;;3.10;;
1024;SDS011;501;48.214;11.350;2023-06-24T13:41:42;3.77;;;3.47;;
1024;SDS011;501;48.214;11.350;2023-06-24T13:44:09;3.80;;;3.50;;
1024;SDS011;501;48.214;11.350;2023-06-24T13:46:35;3.77;;;3.47;;
1024;SDS011;501;48.214;11.350;2023-06-24T13:49:01;4.37;;;4.07;;
1024;SDS011;501;48.214;11.350;2023-06-24T13:51:27;3.50;;;3.30;;
1024;SDS011;501;48.214;11.350;2023-06-24T13:53:54;4.23;;;3.83;;
1024;SDS011;501;48.214;11.350;2023-06-24T13:56:20;3.80;;;3.40;;
1024;SDS011;501;48.214;11.350;2023-06-24T13:58:49;3.80;;;3.50;;
1024;SDS011;501;48.214;11.350;2023-06-24T14:01:15;3.80;;;3.60;;
1024;SDS011;501;48.214;11.350;2023-06-24T14:03:41;3.77;;;3.47;;
1024;SDS011;501;48.214;11.350;2023-06-24T14:06:07;4.33;;;3.93;;
1024;SDS011;501;48.214;11.350;2023-06-24T14:08:33;4.63;;;4.23;;
1024;SDS011;501;48.214;11.350;2023-06-24T14:10:59;4.27;;;3.87;;
1024;SDS011;501;48.214;11.350;2023-06-24T14:13:26;3.67;;;3.37;;
1024;SDS011;501;48.214;11.350;2023-06-24T14:15:52;3.70;;;3.40;;
1024;SDS011;501;48.214;11.350;2023-06-24T14:18:18;3.50;;;3.20;;
1024;SDS011;501;48.214;11.350;2023-06-24T14:20:44;3.60;;;3.30;;
1024;SDS011;501;48.214;11.350;2023-06-24T14:23:10;4.53;;;3.73;;
1024;SDS011;501;48.214;11.350;2023-06-24T14:25:36;3.83;;;3.53;;
1024;SDS011;501;48.214;11.350;2023-06-24T14:28:03;4.00;;;3.60;;
1024;SDS011;501;48.214;11.350;2023-06-24T14:30:29;3.30;;;3.00;;
1024;SDS011;501;48.214;11.350;2023-06-24T14:32:54;3.10;;;2.80;;
1024;SDS011;501;48.214;11.350;2023-06-24T14:35:20;3.80;;;3.50;;
1024;SDS011;501;48.214;11.350;2023-06-24T14:37:46;3.90;;;3.60;;
1024;SDS011;501;48.214;11.350;2023-06-24T14:40:11;4.13;;;3.63;;
1024;SDS011;501;48.214;11.350;2023-06-24T14:42:37;4.00;;;3.70;;
1024;SDS011;501;48.214;11.350;2023-06-24T14:45:03;3.60;;;3.33;;
1024;SDS011;501;48.214;11.350;2023-06-24T14:47:28;4.37;;;3.97;;
1024;SDS011;501;48.214;11.350;2023-06-24T14:49:54;3.80;;;3.50;;
1024;SDS011;501;48.214;11.350;2023-06-24T14:52:20;6.73;;;3.60;;
1024;SDS011;501;48.214;11.350;2023-06-24T14:54:48;3.43;;;3.13;;
1024;SDS011;501;48.214;11.350;2023-06-24T14:57:14;6.53;;;4.87;;
1024;SDS011;501;48.214;11.350;2023-06-24T14:59:42;3.47;;;3.17;;
1024;SDS011;501;48.214;11.350;2023-06-24T15:02:08;3.73;;;3.43;;
1024;SDS011;501;48.214;11.350;2023-06-24T15:04:37;3.97;;;3.47;;
1024;SDS011;501;48.214;11.350;2023-06-24T15:07:03;3.53;;;3.13;;
1024;SDS011;501;48.214;11.350;2023-06-24T15:09:29;3.90;;;3.50;;
1024;SDS011;501;48.214;11.350;2023-06-24T15:11:55;4.07;;;3.67;;
1024;SDS011;501;48.214;11.350;2023-06-24T15:14:20;3.67;;;3.37;;
1024;SDS011;501;48.214;11.350;2023-06-24T15:16:46;4.00;;;3.63;;
1024;SDS011;501;48.214;11.350;2023-06-24T15:19:12;4.13;;;3.70;;
1024;SDS011;501;48.214;11.350;2023-06-24T15:21:37;3.50;;;3.20;;
1024;SDS011;501;48.214;11.350;2023-06-24T15:24:03;5.57;;;3.60;;
1024;SDS011;501;48.214;11.350;2023-06-24T15:26:29;4.00;;;3.60;;
1024;SDS011;501;48.214;11.350;2023-06-24T15:28:55;4.00;;;3.70;;
1024;SDS011;501;48.214;11.350;2023-06-24T15:31:20;3.67;;;3.37;;
1024;SDS011;501;48.214;11.350;2023-06-24T15:33:46;3.73;;;3.20;;
1024;SDS011;501;48.214;11.350;2023-06-24T15:36:11;4.33;;;3.23;;